createdAt,value
2017-01-14T00:00:15.371Z,76.67
2017-01-14T00:01:25.382Z,76.29
2017-01-14T00:04:02.267Z,76.38
2017-01-14T00:05:13.724Z,76.29
2017-01-14T00:06:56.351Z,76.86
2017-01-14T15:31:28.425Z,74.28
2017-01-14T15:32:38.268Z,74.66
2017-01-14T15:33:48.643Z,74.85
2017-01-14T15:34:58.554Z,75.13
2017-01-14T15:36:08.844Z,75.79
2017-01-14T15:37:18.782Z,75.32
2017-01-14T15:38:28.646Z,75.42
2017-01-14T15:39:38.711Z,75.51
2017-01-14T15:40:48.154Z,75.6
2017-01-14T15:41:58.431Z,75.7
2017-01-14T15:43:08.687Z,75.79
2017-01-14T15:44:18.531Z,75.7
2017-01-14T15:45:28.776Z,75.7
2017-01-14T15:46:38.650Z,75.79
2017-01-14T15:47:48.481Z,75.6
2017-01-14T15:48:58.360Z,75.79
2017-01-14T15:50:08.636Z,77.03
2017-01-14T15:51:18.480Z,76.93
2017-01-14T15:52:28.364Z,77.59
2017-01-14T15:53:38.614Z,77.97
2017-01-14T15:54:48.864Z,78.54
2017-01-14T15:55:58.423Z,78.54
2017-01-14T15:57:07.872Z,78.83
2017-01-14T15:58:22.257Z,78.92
2017-01-14T15:59:32.170Z,78.35
2017-01-14T16:00:42.462Z,78.73
2017-01-14T16:01:52.298Z,78.64
2017-01-14T16:03:02.814Z,78.64
2017-01-14T16:04:13.295Z,78.64
2017-01-14T16:05:23.156Z,78.73
2017-01-14T16:06:33.210Z,78.73
2017-01-14T16:07:43.104Z,78.35
2017-01-14T16:08:53.018Z,78.35
2017-01-14T16:10:03.738Z,78.07
2017-01-14T16:11:13.655Z,78.45
2017-01-14T16:12:23.513Z,79.02
2017-01-14T16:13:32.936Z,79.3
2017-01-14T16:14:42.788Z,78.73
2017-01-14T16:15:52.711Z,79.58
2017-01-14T16:17:03.068Z,79.68
2017-01-14T16:18:12.967Z,79.87
2017-01-14T16:19:22.844Z,79.39
2017-01-14T16:20:32.680Z,79.87
2017-01-14T16:21:42.940Z,79.58
2017-01-14T16:22:53.269Z,80.34
2017-01-14T16:24:03.265Z,81.1
2017-01-14T16:25:13.544Z,81.01
2017-01-14T16:26:23.900Z,80.63
2017-01-14T16:27:33.774Z,81.57
2017-01-14T16:28:43.652Z,82.05
2017-01-14T16:29:53.489Z,82.9
2017-01-14T16:31:03.391Z,82.9
2017-01-14T16:32:13.247Z,83
2017-01-14T16:33:22.672Z,83.09
2017-01-14T16:34:32.516Z,83.24
2017-01-14T16:35:42.781Z,83.14
2017-01-14T16:36:52.218Z,83.71
2017-01-14T16:38:02.484Z,83.52
2017-01-14T16:39:12.327Z,83.05
2017-01-14T16:40:22.674Z,83.14
2017-01-14T16:41:33.134Z,83.43
2017-01-14T16:42:43.377Z,83.52
2017-01-14T16:43:53.285Z,83.43
2017-01-14T16:45:03.130Z,83.52
2017-01-14T16:46:13.603Z,83.81
2017-01-14T16:47:23.435Z,83.81
2017-01-14T16:48:33.841Z,84.47
2017-01-14T16:49:44.192Z,84.75
2017-01-14T16:50:54.488Z,84.47
2017-01-14T16:52:04.750Z,85.32
2017-01-14T16:53:14.178Z,85.04
2017-01-14T16:54:24.487Z,85.23
2017-01-14T16:55:34.408Z,85.51
2017-01-14T16:56:44.666Z,85.42
2017-01-14T16:57:54.107Z,85.8
2017-01-14T16:59:03.585Z,85.7
2017-01-14T17:00:13.469Z,85.7
2017-01-14T17:01:23.303Z,85.7
2017-01-14T17:02:33.212Z,85.61
2017-01-14T17:03:42.691Z,85.51
2017-01-14T17:04:51.783Z,85.13
2017-01-14T17:06:01.276Z,85.23
2017-01-14T17:07:11.534Z,85.13
2017-01-14T17:08:21.520Z,84.56
2017-01-14T17:09:31.349Z,84.38
2017-01-14T17:10:41.764Z,84.75
2017-01-14T17:11:51.613Z,84.56
2017-01-14T17:13:01.469Z,84.47
2017-01-14T17:14:11.744Z,84.85
2017-01-14T17:15:21.600Z,84.56
2017-01-14T17:16:32.048Z,84.09
2017-01-14T17:17:42.320Z,85.13
2017-01-14T17:18:52.648Z,84.66
2017-01-14T17:20:02.945Z,84.28
2017-01-14T17:21:13.263Z,84.56
2017-01-14T17:22:23.598Z,84.56
2017-01-14T17:23:33.969Z,84.38
2017-01-14T17:24:44.250Z,84.85
2017-01-14T17:25:54.528Z,84
2017-01-14T17:27:04.929Z,84.47
2017-01-14T17:28:15.076Z,84.56
2017-01-14T17:29:24.526Z,84.19
2017-01-14T17:30:33.984Z,84.19
2017-01-14T17:31:44.224Z,84.09
2017-01-14T17:32:54.135Z,84.09
2017-01-14T17:34:04.378Z,84.19
2017-01-14T17:35:14.367Z,83.9
2017-01-14T17:36:24.226Z,84.28
2017-01-14T17:37:33.750Z,84.09
2017-01-14T17:38:44.059Z,83.81
2017-01-14T17:39:54.504Z,84
2017-01-14T17:41:04.830Z,84.19
2017-01-14T17:42:14.266Z,83.71
2017-01-14T17:43:24.589Z,84.28
2017-01-14T17:44:34.891Z,83.71
2017-01-14T17:45:44.777Z,84.19
2017-01-14T17:46:54.676Z,83.71
2017-01-14T17:48:04.910Z,83.33
2017-01-14T17:49:14.752Z,83.33
2017-01-14T17:50:25.067Z,83.71
2017-01-14T17:51:34.943Z,83.62
2017-01-14T17:52:45.385Z,83.81
2017-01-14T17:53:55.665Z,83.56
2017-01-14T17:55:05.924Z,83.52
2017-01-14T17:56:16.339Z,83.43
2017-01-14T17:57:26.224Z,83.52
2017-01-14T17:58:35.671Z,83.81
2017-01-14T17:59:45.964Z,83.71
2017-01-14T18:00:56.260Z,83.05
2017-01-14T18:02:06.188Z,83.52
2017-01-14T18:03:16.478Z,83.71
2017-01-14T18:04:26.791Z,83.62
2017-01-14T18:05:37.024Z,83.71
2017-01-14T18:06:46.493Z,83.62
2017-01-14T18:07:56.442Z,83.33
2017-01-14T18:09:06.828Z,83.71
2017-01-14T18:10:17.128Z,83.43
2017-01-14T18:11:27.212Z,83.52
2017-01-14T18:12:37.436Z,83.52
2017-01-14T18:13:46.971Z,83.62
2017-01-14T18:14:56.959Z,83.43
2017-01-14T18:16:06.451Z,83.62
2017-01-14T18:17:16.543Z,82.86
2017-01-14T18:18:26.432Z,83.71
2017-01-14T18:19:36.731Z,83.62
2017-01-14T18:20:46.628Z,83.71
2017-01-14T18:21:56.508Z,83.37
2017-01-14T18:23:06.764Z,83
2017-01-14T18:24:16.686Z,82.86
2017-01-14T18:25:26.580Z,83.09
2017-01-14T18:26:36.577Z,83.09
2017-01-14T18:27:46.448Z,83
2017-01-14T18:28:56.770Z,82.71
2017-01-14T18:30:07.040Z,82.43
2017-01-14T18:31:17.418Z,82.14
2017-01-14T18:32:27.664Z,82.24
2017-01-14T18:33:37.526Z,82.05
2017-01-14T18:34:47.411Z,82.24
2017-01-14T18:35:56.860Z,82.24
2017-01-14T18:37:07.212Z,82.43
2017-01-14T18:38:16.738Z,82.52
2017-01-14T18:39:27.124Z,82.29
2017-01-14T18:40:37.421Z,82.39
2017-01-14T18:41:46.862Z,82.1
2017-01-14T18:42:57.174Z,82.39
2017-01-14T18:44:07.425Z,82.1
2017-01-14T18:45:17.675Z,82.2
2017-01-14T18:46:27.771Z,82.2
2017-01-14T18:47:38.032Z,82.2
2017-01-14T18:48:48.375Z,82.48
2017-01-14T18:49:58.247Z,82.52
2017-01-14T18:51:07.733Z,82.33
2017-01-14T18:52:17.976Z,82.2
2017-01-14T18:53:27.834Z,82.43
2017-01-14T18:54:38.116Z,82.29
2017-01-14T18:55:48.110Z,82.29
2017-01-14T18:56:58.377Z,82.29
2017-01-14T18:58:07.865Z,82.29
2017-01-14T18:59:17.344Z,82.01
2017-01-14T19:00:27.731Z,82.1
2017-01-14T19:01:38.059Z,81.92
2017-01-14T19:02:47.523Z,82.05
2017-01-14T19:03:57.363Z,82.05
2017-01-14T19:05:07.363Z,81.72
2017-01-14T19:06:17.666Z,82.2
2017-01-14T19:07:27.907Z,81.29
2017-01-14T19:08:38.221Z,81.44
2017-01-14T19:09:48.557Z,81.34
2017-01-14T19:10:58.829Z,81.53
2017-01-14T19:12:09.135Z,80.96
2017-01-14T19:13:19.025Z,80.96
2017-01-14T19:14:28.874Z,81.15
2017-01-14T19:15:39.167Z,80.96
2017-01-14T19:16:48.621Z,80.82
2017-01-14T19:17:58.879Z,80.77
2017-01-14T19:19:08.775Z,80.72
2017-01-14T19:20:19.060Z,80.77
2017-01-14T19:21:28.953Z,80.77
2017-01-14T19:22:39.358Z,80.77
2017-01-14T19:23:48.522Z,80.68
2017-01-14T19:24:57.989Z,80.91
2017-01-14T19:26:08.543Z,80.82
2017-01-14T19:27:18.826Z,80.77
2017-01-14T19:28:29.090Z,80.91
2017-01-14T19:29:38.141Z,80.82
2017-01-14T19:30:48.452Z,80.82
2017-01-14T19:31:58.734Z,81.1
2017-01-14T19:33:09.072Z,80.82
2017-01-14T19:34:19.322Z,80.34
2017-01-14T19:35:29.777Z,80.34
2017-01-14T19:36:39.656Z,80.34
2017-01-14T19:37:49.842Z,80.72
2017-01-14T19:39:02.790Z,80.34
2017-01-14T19:40:13.797Z,80.63
2017-01-14T19:41:25.414Z,80.63
2017-01-14T19:42:36.942Z,80.53
2017-01-14T19:43:47.918Z,79.96
2017-01-14T19:44:59.355Z,79.96
2017-01-14T19:46:09.609Z,80.15
2017-01-14T19:47:19.889Z,79.96
2017-01-14T19:49:04.663Z,79.58
2017-01-14T19:50:17.821Z,79.77
2017-01-14T19:52:32.231Z,79.87
2017-01-14T19:53:43.633Z,79.68
2017-01-14T19:54:54.891Z,79.87
2017-01-14T19:56:08.736Z,80.15
2017-01-14T19:57:19.208Z,80.25
2017-01-14T19:58:32.314Z,80.15
2017-01-14T20:00:15.479Z,80.53
2017-01-14T20:01:58.266Z,80.53
2017-01-14T20:03:08.185Z,80.44
2017-01-14T20:04:18.495Z,80.53
2017-01-14T20:05:28.437Z,80.25
2017-01-14T20:06:38.806Z,80.44
2017-01-14T20:07:48.675Z,80.63
2017-01-14T20:08:58.551Z,79.96
2017-01-14T20:10:08.536Z,79.87
2017-01-14T20:11:18.907Z,79.87
2017-01-14T20:12:28.795Z,80.15
2017-01-14T20:13:38.676Z,80.53
2017-01-14T20:14:48.932Z,79.96
2017-01-14T20:15:59.221Z,80.53
2017-01-14T20:17:08.681Z,80.53
2017-01-14T20:18:18.611Z,79.87
2017-01-14T20:19:28.894Z,80.44
2017-01-14T20:20:38.350Z,80.34
2017-01-14T20:21:48.223Z,80.63
2017-01-14T20:22:58.110Z,80.63
2017-01-14T20:24:08.088Z,80.15
2017-01-14T20:25:18.085Z,80.11
2017-01-14T20:26:28.336Z,80.82
2017-01-14T20:27:38.232Z,81.06
2017-01-14T20:28:48.105Z,81.25
2017-01-14T20:29:58.449Z,81.25
2017-01-14T20:31:08.376Z,80.87
2017-01-14T20:32:18.659Z,81.06
2017-01-14T20:33:28.581Z,81.53
2017-01-14T20:34:38.472Z,81.53
2017-01-14T20:35:48.365Z,81.34
2017-01-14T20:36:58.289Z,81.34
2017-01-14T20:38:08.643Z,81.25
2017-01-14T20:39:18.983Z,81.25
2017-01-14T20:40:29.236Z,81.34
2017-01-14T20:41:39.113Z,81.25
2017-01-14T20:42:49.377Z,81.63
2017-01-14T20:43:58.907Z,81.34
2017-01-14T20:45:08.777Z,81.25
2017-01-14T20:46:19.088Z,81.25
2017-01-14T20:47:29.378Z,81.34
2017-01-14T20:48:38.859Z,81.72
2017-01-14T20:49:49.132Z,81.34
2017-01-14T20:50:58.975Z,81.72
2017-01-14T20:52:09.288Z,81.44
2017-01-14T20:53:19.194Z,82.2
2017-01-14T20:54:29.034Z,82.2
2017-01-14T20:55:39.420Z,82.29
2017-01-14T20:56:49.395Z,82.2
2017-01-14T20:57:59.664Z,82.01
2017-01-14T20:59:09.915Z,81.44
2017-01-14T21:00:20.214Z,81.34
2017-01-14T21:01:29.733Z,81.63
2017-01-14T21:02:39.627Z,81.25
2017-01-14T21:03:49.530Z,81.34
2017-01-14T21:04:59.921Z,81.53
2017-01-14T21:06:09.763Z,81.44
2017-01-14T21:07:19.619Z,81.34
2017-01-14T21:08:29.727Z,81.34
2017-01-14T21:09:39.985Z,81.34
2017-01-14T21:10:50.258Z,81.34
2017-01-14T21:12:00.580Z,81.44
2017-01-14T21:13:10.877Z,81.15
2017-01-14T21:14:20.847Z,81.25
2017-01-14T21:15:30.863Z,81.15
2017-01-14T21:16:41.329Z,80.87
2017-01-14T21:17:51.267Z,80.96
2017-01-14T21:19:01.530Z,80.87
2017-01-14T21:20:11.825Z,81.15
2017-01-14T21:21:20.881Z,80.87
2017-01-14T21:22:29.997Z,81.15
2017-01-14T21:23:39.908Z,80.58
2017-01-14T21:24:49.842Z,80.96
2017-01-14T21:26:00.192Z,80.68
2017-01-14T21:27:10.518Z,80.87
2017-01-14T21:28:20.403Z,81.15
2017-01-14T21:29:30.792Z,81.06
2017-01-14T21:30:41.081Z,80.87
2017-01-14T21:31:50.990Z,80.87
2017-01-14T21:33:00.944Z,80.87
2017-01-14T21:34:10.410Z,80.77
2017-01-14T21:35:20.504Z,80.87
2017-01-14T21:36:29.984Z,80.96
2017-01-14T21:37:40.310Z,80.4
2017-01-14T21:38:49.755Z,80.4
2017-01-14T21:39:59.622Z,80.68
2017-01-14T21:41:09.550Z,80.21
2017-01-14T21:42:19.839Z,80.3
2017-01-14T21:43:28.881Z,81.06
2017-01-14T21:44:38.748Z,80.96
2017-01-14T21:45:48.948Z,80.49
2017-01-14T21:46:58.416Z,80.4
2017-01-14T21:48:08.266Z,80.11
2017-01-14T21:49:18.129Z,81.06
2017-01-14T21:50:27.625Z,80.3
2017-01-14T21:51:38.046Z,80.49
2017-01-14T21:52:47.798Z,80.11
2017-01-14T21:53:57.343Z,80.58
2017-01-14T21:55:07.612Z,80.4
2017-01-14T21:56:17.507Z,80.49
2017-01-14T21:57:27.508Z,80.11
2017-01-14T21:58:37.412Z,80.58
2017-01-14T21:59:47.750Z,80.21
2017-01-14T22:00:57.614Z,80.3
2017-01-14T22:02:07.083Z,80.3
2017-01-14T22:03:17.521Z,80.11
2017-01-14T22:04:27.016Z,80.4
2017-01-14T22:05:36.957Z,80.3
2017-01-14T22:06:46.844Z,80.4
2017-01-14T22:07:56.356Z,80.4
2017-01-14T22:09:06.591Z,80.21
2017-01-14T22:10:16.934Z,80.4
2017-01-14T22:11:26.008Z,80.4
2017-01-14T22:12:35.925Z,80.77
2017-01-14T22:13:45.000Z,80.4
2017-01-14T22:14:54.853Z,80.3
2017-01-14T22:16:04.516Z,80.21
2017-01-14T22:17:14.783Z,80.3
2017-01-14T22:18:25.885Z,80.77
2017-01-14T22:19:37.180Z,80.77
2017-01-14T22:20:47.513Z,80.96
2017-01-14T22:21:57.603Z,80.11
2017-01-14T22:23:07.493Z,80.3
2017-01-14T22:24:17.839Z,80.49
2017-01-14T22:25:27.780Z,81.06
2017-01-14T22:26:38.054Z,80.77
2017-01-14T22:27:48.358Z,81.06
2017-01-14T22:28:58.701Z,81.15
2017-01-14T22:30:09.139Z,81.25
2017-01-14T22:31:19.059Z,81.25
2017-01-14T22:32:28.683Z,81.25
2017-01-14T22:33:38.565Z,80.96
2017-01-14T22:34:48.461Z,81.06
2017-01-14T22:35:58.733Z,81.72
2017-01-14T22:37:08.645Z,81.53
2017-01-14T22:38:18.528Z,81.72
2017-01-14T22:39:28.826Z,81.53
2017-01-14T22:40:39.123Z,81.44
2017-01-14T22:41:48.996Z,81.15
2017-01-14T22:42:59.348Z,81.72
2017-01-14T22:44:08.818Z,81.44
2017-01-14T22:45:18.678Z,81.72
2017-01-14T22:46:29.066Z,81.53
2017-01-14T22:47:38.605Z,82.29
2017-01-14T22:48:47.730Z,81.25
2017-01-14T22:49:57.595Z,81.92
2017-01-14T22:51:07.497Z,81.25
2017-01-14T22:52:17.837Z,81.44
2017-01-14T22:53:28.101Z,81.72
2017-01-14T22:54:37.666Z,81.34
2017-01-14T22:55:47.997Z,80.96
2017-01-14T22:56:57.852Z,81.25
2017-01-14T22:58:08.186Z,80.87
2017-01-14T22:59:18.435Z,80.96
2017-01-14T23:00:28.714Z,80.68
2017-01-14T23:01:38.563Z,80.68
2017-01-14T23:02:48.843Z,80.87
2017-01-14T23:03:58.681Z,80.87
2017-01-14T23:05:08.519Z,81.25
2017-01-14T23:06:18.816Z,81.25
2017-01-14T23:07:28.696Z,81.25
2017-01-14T23:08:38.266Z,81.34
2017-01-14T23:09:48.101Z,80.77
2017-01-14T23:10:58.441Z,81.44
2017-01-14T23:12:08.353Z,81.4
2017-01-14T23:13:17.811Z,81.49
2017-01-14T23:14:28.086Z,81.34
2017-01-14T23:15:38.160Z,81.3
2017-01-14T23:16:48.673Z,81.44
2017-01-14T23:17:58.903Z,81.59
2017-01-14T23:19:08.334Z,81.25
2017-01-14T23:20:17.823Z,81.53
2017-01-14T23:21:27.663Z,81.49
2017-01-14T23:22:37.893Z,82.2
2017-01-14T23:23:48.170Z,82.1
2017-01-14T23:24:58.144Z,81.77
2017-01-14T23:26:08.388Z,82.06
2017-01-14T23:27:18.680Z,81.96
2017-01-14T23:28:29.103Z,81.68
2017-01-14T23:29:39.347Z,81.87
2017-01-14T23:30:49.652Z,81.77
2017-01-14T23:31:59.922Z,81.96
2017-01-14T23:33:09.892Z,81.77
2017-01-14T23:34:19.726Z,81.96
2017-01-14T23:35:29.969Z,81.49
2017-01-14T23:36:40.207Z,81.4
2017-01-14T23:37:50.081Z,81.4
2017-01-14T23:39:00.371Z,81.49
2017-01-14T23:40:10.288Z,81.49
2017-01-14T23:41:20.557Z,80.93
2017-01-14T23:42:30.489Z,80.93
2017-01-14T23:43:40.742Z,80.74
2017-01-14T23:44:51.054Z,81.12
2017-01-14T23:46:00.900Z,81.21
2017-01-14T23:47:11.185Z,81.21
2017-01-14T23:48:21.024Z,81.21
2017-01-14T23:49:30.465Z,81.12
2017-01-14T23:50:40.728Z,80.74
2017-01-14T23:51:50.603Z,81.02
2017-01-14T23:53:00.464Z,80.83
2017-01-14T23:54:09.921Z,81.02
2017-01-14T23:55:19.798Z,81.3
2017-01-14T23:56:30.027Z,81.12
2017-01-14T23:57:39.862Z,81.21
2017-01-14T23:58:50.144Z,80.83
2017-01-14T23:59:59.988Z,80.83
